sensor_id;sensor_type;location;lat;lon;timestamp;pressure;altitude;pressure_sealevel;temperature;humidity
51986;BME280;38002;53.296;6.600;2023-04-15T00:02:16;101348.41;;;6.62;76.63
51986;BME280;38002;53.296;6.600;2023-04-15T00:07:17;101345.22;;;6.57;77.23
51986;BME280;38002;53.296;6.600;2023-04-15T00:12:18;101347.31;;;6.53;76.88
51986;BME280;38002;53.296;6.600;2023-04-15T00:17:18;101340.31;;;6.51;77.04
51986;BME280;38002;53.296;6.600;2023-04-15T00:22:19;101341.41;;;6.48;77.05
51986;BME280;38002;53.296;6.600;2023-04-15T00:27:19;101345.50;;;6.43;77.29
51986;BME280;38002;53.296;6.600;2023-04-15T00:32:20;101352.34;;;6.35;77.31
51986;BME280;38002;53.296;6.600;2023-04-15T00:37:21;101352.84;;;6.29;77.31
51986;BME280;38002;53.296;6.600;2023-04-15T00:42:22;101347.31;;;6.20;77.53
51986;BME280;38002;53.296;6.600;2023-04-15T00:47:25;101353.09;;;6.15;78.16
51986;BME280;38002;53.296;6.600;2023-04-15T00:52:26;101363.50;;;6.09;78.23
51986;BME280;38002;53.296;6.600;2023-04-15T00:57:27;101361.16;;;6.04;77.98
51986;BME280;38002;53.296;6.600;2023-04-15T01:02:28;101365.84;;;6.02;78.17
51986;BME280;38002;53.296;6.600;2023-04-15T01:07:29;101357.25;;;5.97;79.01
51986;BME280;38002;53.296;6.600;2023-04-15T01:12:31;101373.78;;;5.92;79.01
51986;BME280;38002;53.296;6.600;2023-04-15T01:17:32;101361.16;;;5.93;78.46
51986;BME280;38002;53.296;6.600;2023-04-15T01:22:33;101368.53;;;5.91;78.67
51986;BME280;38002;53.296;6.600;2023-04-15T01:27:33;101366.06;;;5.88;78.61
51986;BME280;38002;53.296;6.600;2023-04-15T01:32:35;101371.59;;;5.86;78.93
51986;BME280;38002;53.296;6.600;2023-04-15T01:37:36;101372.78;;;5.82;78.74
51986;BME280;38002;53.296;6.600;2023-04-15T01:42:36;101375.31;;;5.73;79.10
51986;BME280;38002;53.296;6.600;2023-04-15T01:47:37;101377.50;;;5.68;79.27
51986;BME280;38002;53.296;6.600;2023-04-15T01:52:38;101376.38;;;5.59;79.48
51986;BME280;38002;53.296;6.600;2023-04-15T01:57:38;101376.72;;;5.55;79.59
51986;BME280;38002;53.296;6.600;2023-04-15T02:02:39;101377.59;;;5.55;80.00
51986;BME280;38002;53.296;6.600;2023-04-15T02:07:39;101382.38;;;5.52;80.13
51986;BME280;38002;53.296;6.600;2023-04-15T02:12:40;101376.22;;;5.49;79.93
51986;BME280;38002;53.296;6.600;2023-04-15T02:17:41;101387.09;;;5.48;80.18
51986;BME280;38002;53.296;6.600;2023-04-15T02:22:44;101388.44;;;5.42;80.57
51986;BME280;38002;53.296;6.600;2023-04-15T02:27:45;101392.22;;;5.40;80.32
51986;BME280;38002;53.296;6.600;2023-04-15T02:32:45;101401.41;;;5.37;79.98
51986;BME280;38002;53.296;6.600;2023-04-15T02:37:46;101399.06;;;5.33;80.33
51986;BME280;38002;53.296;6.600;2023-04-15T02:42:47;101407.50;;;5.28;80.30
51986;BME280;38002;53.296;6.600;2023-04-15T02:47:47;101405.38;;;5.21;80.52
51986;BME280;38002;53.296;6.600;2023-04-15T02:52:47;101418.44;;;5.14;81.13
51986;BME280;38002;53.296;6.600;2023-04-15T02:57:48;101424.31;;;5.08;80.26
51986;BME280;38002;53.296;6.600;2023-04-15T03:02:48;101428.31;;;5.02;81.07
51986;BME280;38002;53.296;6.600;2023-04-15T03:07:51;101429.75;;;4.95;80.82
51986;BME280;38002;53.296;6.600;2023-04-15T03:12:52;101435.47;;;4.91;80.92
51986;BME280;38002;53.296;6.600;2023-04-15T03:17:52;101426.84;;;4.86;81.12
51986;BME280;38002;53.296;6.600;2023-04-15T03:22:52;101436.22;;;4.80;80.69
51986;BME280;38002;53.296;6.600;2023-04-15T03:27:53;101445.59;;;4.75;80.87
51986;BME280;38002;53.296;6.600;2023-04-15T03:32:53;101441.53;;;4.69;81.27
51986;BME280;38002;53.296;6.600;2023-04-15T03:37:54;101436.72;;;4.62;81.39
51986;BME280;38002;53.296;6.600;2023-04-15T03:42:54;101446.94;;;4.56;81.04
51986;BME280;38002;53.296;6.600;2023-04-15T03:47:55;101455.22;;;4.53;80.95
51986;BME280;38002;53.296;6.600;2023-04-15T03:52:55;101453.72;;;4.49;81.28
51986;BME280;38002;53.296;6.600;2023-04-15T03:57:56;101459.22;;;4.48;81.31
51986;BME280;38002;53.296;6.600;2023-04-15T04:02:56;101454.91;;;4.45;81.40
51986;BME280;38002;53.296;6.600;2023-04-15T04:07:57;101459.34;;;4.46;81.16
51986;BME280;38002;53.296;6.600;2023-04-15T04:12:57;101457.50;;;4.47;81.26
51986;BME280;38002;53.296;6.600;2023-04-15T04:17:58;101466.63;;;4.44;81.09
51986;BME280;38002;53.296;6.600;2023-04-15T04:22:58;101469.34;;;4.44;81.43
51986;BME280;38002;53.296;6.600;2023-04-15T04:27:59;101471.28;;;4.42;80.99
51986;BME280;38002;53.296;6.600;2023-04-15T04:32:59;101474.06;;;4.41;81.77
51986;BME280;38002;53.296;6.600;2023-04-15T04:38:00;101478.59;;;4.40;81.48
51986;BME280;38002;53.296;6.600;2023-04-15T04:43:01;101485.94;;;4.38;81.10
51986;BME280;38002;53.296;6.600;2023-04-15T04:48:01;101485.16;;;4.36;81.69
51986;BME280;38002;53.296;6.600;2023-04-15T04:53:05;101489.81;;;4.34;81.42
51986;BME280;38002;53.296;6.600;2023-04-15T04:58:06;101488.09;;;4.33;81.15
51986;BME280;38002;53.296;6.600;2023-04-15T05:03:06;101489.81;;;4.34;81.64
51986;BME280;38002;53.296;6.600;2023-04-15T05:08:07;101494.97;;;4.37;81.55
51986;BME280;38002;53.296;6.600;2023-04-15T05:13:07;101499.94;;;4.43;81.78
51986;BME280;38002;53.296;6.600;2023-04-15T05:18:08;101498.53;;;4.50;82.25
51986;BME280;38002;53.296;6.600;2023-04-15T05:23:08;101505.19;;;4.57;82.34
51986;BME280;38002;53.296;6.600;2023-04-15T05:28:08;101512.75;;;4.65;81.70
51986;BME280;38002;53.296;6.600;2023-04-15T05:33:09;101517.38;;;4.76;82.30
51986;BME280;38002;53.296;6.600;2023-04-15T05:38:10;101512.97;;;4.87;82.21
51986;BME280;38002;53.296;6.600;2023-04-15T05:43:11;101530.09;;;4.99;82.48
51986;BME280;38002;53.296;6.600;2023-04-15T05:48:11;101533.81;;;5.09;82.78
51986;BME280;38002;53.296;6.600;2023-04-15T05:53:11;101534.56;;;5.24;83.54
51986;BME280;38002;53.296;6.600;2023-04-15T05:58:12;101543.47;;;5.37;83.42
51986;BME280;38002;53.296;6.600;2023-04-15T06:03:12;101546.03;;;5.51;83.07
51986;BME280;38002;53.296;6.600;2023-04-15T06:08:13;101552.34;;;5.63;83.85
51986;BME280;38002;53.296;6.600;2023-04-15T06:13:13;101566.75;;;5.74;84.35
51986;BME280;38002;53.296;6.600;2023-04-15T06:18:14;101572.34;;;5.84;83.71
51986;BME280;38002;53.296;6.600;2023-04-15T06:23:14;101580.53;;;5.95;83.54
51986;BME280;38002;53.296;6.600;2023-04-15T06:28:15;101587.72;;;6.07;83.72
51986;BME280;38002;53.296;6.600;2023-04-15T06:33:15;101580.41;;;6.20;83.81
51986;BME280;38002;53.296;6.600;2023-04-15T06:38:16;101586.97;;;6.40;83.87
51986;BME280;38002;53.296;6.600;2023-04-15T06:43:16;101594.19;;;6.63;84.79
51986;BME280;38002;53.296;6.600;2023-04-15T06:48:17;101586.84;;;6.88;84.19
51986;BME280;38002;53.296;6.600;2023-04-15T06:53:18;101596.72;;;7.11;84.34
51986;BME280;38002;53.296;6.600;2023-04-15T06:58:18;101596.84;;;7.32;85.07
51986;BME280;38002;53.296;6.600;2023-04-15T07:03:19;101602.03;;;7.46;84.41
51986;BME280;38002;53.296;6.600;2023-04-15T07:08:19;101603.72;;;7.58;83.42
51986;BME280;38002;53.296;6.600;2023-04-15T07:13:20;101596.09;;;7.63;83.84
51986;BME280;38002;53.296;6.600;2023-04-15T07:18:21;101607.66;;;7.76;83.47
51986;BME280;38002;53.296;6.600;2023-04-15T07:23:21;101631.97;;;7.87;82.48
51986;BME280;38002;53.296;6.600;2023-04-15T07:28:22;101625.81;;;7.96;83.06
51986;BME280;38002;53.296;6.600;2023-04-15T07:33:22;101643.03;;;8.06;82.77
51986;BME280;38002;53.296;6.600;2023-04-15T07:38:23;101648.66;;;8.14;82.65
51986;BME280;38002;53.296;6.600;2023-04-15T07:43:23;101647.03;;;8.23;82.18
51986;BME280;38002;53.296;6.600;2023-04-15T07:48:24;101644.69;;;8.30;82.38
51986;BME280;38002;53.296;6.600;2023-04-15T07:53:25;101657.59;;;8.37;82.25
51986;BME280;38002;53.296;6.600;2023-04-15T07:58:25;101646.53;;;8.40;82.75
51986;BME280;38002;53.296;6.600;2023-04-15T08:03:26;101657.09;;;8.43;82.13
51986;BME280;38002;53.296;6.600;2023-04-15T08:08:27;101660.66;;;8.44;82.36
51986;BME280;38002;53.296;6.600;2023-04-15T08:13:27;101662.63;;;8.42;82.22
51986;BME280;38002;53.296;6.600;2023-04-15T08:18:28;101662.91;;;8.39;82.17
51986;BME280;38002;53.296;6.600;2023-04-15T08:23:28;101669.44;;;8.36;82.09
51986;BME280;38002;53.296;6.600;2023-04-15T08:28:29;101670.44;;;8.35;82.77
51986;BME280;38002;53.296;6.600;2023-04-15T08:33:29;101667.84;;;8.34;81.86
51986;BME280;38002;53.296;6.600;2023-04-15T08:38:30;101669.44;;;8.36;81.86
51986;BME280;38002;53.296;6.600;2023-04-15T08:43:33;101675.94;;;8.45;82.24
51986;BME280;38002;53.296;6.600;2023-04-15T08:48:36;101667.16;;;8.52;81.98
51986;BME280;38002;53.296;6.600;2023-04-15T08:53:37;101672.59;;;8.52;81.34
51986;BME280;38002;53.296;6.600;2023-04-15T08:58:38;101675.41;;;8.51;81.79
51986;BME280;38002;53.296;6.600;2023-04-15T09:03:39;101674.44;;;8.52;81.80
51986;BME280;38002;53.296;6.600;2023-04-15T09:08:39;101682.06;;;8.58;81.28
51986;BME280;38002;53.296;6.600;2023-04-15T09:13:40;101693.13;;;8.66;80.75
51986;BME280;38002;53.296;6.600;2023-04-15T09:18:42;101691.94;;;8.80;81.12
51986;BME280;38002;53.296;6.600;2023-04-15T09:24:00;101695.28;;;9.04;80.77
51986;BME280;38002;53.296;6.600;2023-04-15T09:29:10;101692.25;;;9.18;80.03
51986;BME280;38002;53.296;6.600;2023-04-15T09:34:13;101710.56;;;9.26;79.39
51986;BME280;38002;53.296;6.600;2023-04-15T09:39:14;101710.56;;;9.26;79.46
51986;BME280;38002;53.296;6.600;2023-04-15T09:44:25;101706.59;;;9.30;79.83
51986;BME280;38002;53.296;6.600;2023-04-15T09:49:26;101717.50;;;9.39;79.82
51986;BME280;38002;53.296;6.600;2023-04-15T09:54:37;101718.56;;;9.48;79.54
51986;BME280;38002;53.296;6.600;2023-04-15T09:59:38;101727.16;;;9.53;79.94
51986;BME280;38002;53.296;6.600;2023-04-15T10:04:40;101737.63;;;9.57;79.56
51986;BME280;38002;53.296;6.600;2023-04-15T10:09:41;101723.91;;;9.59;79.28
51986;BME280;38002;53.296;6.600;2023-04-15T10:14:49;101736.59;;;9.58;79.26
51986;BME280;38002;53.296;6.600;2023-04-15T10:19:53;101740.94;;;9.61;79.04
51986;BME280;38002;53.296;6.600;2023-04-15T10:24:55;101744.50;;;9.62;79.29
51986;BME280;38002;53.296;6.600;2023-04-15T10:29:56;101734.75;;;9.59;79.76
51986;BME280;38002;53.296;6.600;2023-04-15T10:34:56;101740.78;;;9.63;79.37
51986;BME280;38002;53.296;6.600;2023-04-15T10:39:57;101740.06;;;9.61;78.96
51986;BME280;38002;53.296;6.600;2023-04-15T10:44:58;101749.94;;;9.62;79.27
51986;BME280;38002;53.296;6.600;2023-04-15T10:50:00;101752.97;;;9.68;79.26
51986;BME280;38002;53.296;6.600;2023-04-15T10:55:14;101749.97;;;9.71;79.23
51986;BME280;38002;53.296;6.600;2023-04-15T11:00:17;101770.59;;;9.74;78.61
51986;BME280;38002;53.296;6.600;2023-04-15T11:05:19;101762.16;;;9.77;78.87
51986;BME280;38002;53.296;6.600;2023-04-15T11:20:44;101771.47;;;9.84;78.97
51986;BME280;38002;53.296;6.600;2023-04-15T11:25:45;101792.28;;;9.94;78.96
51986;BME280;38002;53.296;6.600;2023-04-15T11:30:45;101794.00;;;9.95;78.83
51986;BME280;38002;53.296;6.600;2023-04-15T11:35:46;101788.81;;;9.92;78.82
51986;BME280;38002;53.296;6.600;2023-04-15T11:40:47;101785.56;;;9.98;78.56
51986;BME280;38002;53.296;6.600;2023-04-15T11:51:05;101809.72;;;9.92;78.45
51986;BME280;38002;53.296;6.600;2023-04-15T11:56:07;101806.38;;;9.88;79.10
51986;BME280;38002;53.296;6.600;2023-04-15T12:01:08;101799.69;;;9.92;79.37
51986;BME280;38002;53.296;6.600;2023-04-15T12:16:32;101811.81;;;10.09;78.61
51986;BME280;38002;53.296;6.600;2023-04-15T12:21:34;101813.66;;;10.09;78.62
51986;BME280;38002;53.296;6.600;2023-04-15T12:31:46;101832.22;;;10.03;79.89
51986;BME280;38002;53.296;6.600;2023-04-15T12:36:47;101834.66;;;10.07;79.75
51986;BME280;38002;53.296;6.600;2023-04-15T12:41:48;101843.81;;;10.06;79.94
51986;BME280;38002;53.296;6.600;2023-04-15T12:46:52;101847.66;;;10.03;79.77
51986;BME280;38002;53.296;6.600;2023-04-15T12:51:57;101847.88;;;9.90;80.18
51986;BME280;38002;53.296;6.600;2023-04-15T12:57:02;101857.69;;;9.82;80.82
51986;BME280;38002;53.296;6.600;2023-04-15T13:02:02;101858.22;;;9.76;80.88
51986;BME280;38002;53.296;6.600;2023-04-15T13:07:03;101866.91;;;9.70;80.57
51986;BME280;38002;53.296;6.600;2023-04-15T13:12:03;101866.44;;;9.65;80.92
51986;BME280;38002;53.296;6.600;2023-04-15T13:17:04;101870.25;;;9.62;81.62
51986;BME280;38002;53.296;6.600;2023-04-15T13:22:09;101869.53;;;9.60;81.93
51986;BME280;38002;53.296;6.600;2023-04-15T13:27:10;101882.63;;;9.55;82.32
51986;BME280;38002;53.296;6.600;2023-04-15T13:32:11;101888.81;;;9.57;82.02
51986;BME280;38002;53.296;6.600;2023-04-15T13:37:11;101892.16;;;9.49;82.44
51986;BME280;38002;53.296;6.600;2023-04-15T13:42:12;101888.13;;;9.44;81.94
51986;BME280;38002;53.296;6.600;2023-04-15T13:47:12;101896.28;;;9.44;82.83
51986;BME280;38002;53.296;6.600;2023-04-15T13:52:15;101893.81;;;9.41;83.09
51986;BME280;38002;53.296;6.600;2023-04-15T13:57:15;101890.38;;;9.39;82.80
51986;BME280;38002;53.296;6.600;2023-04-15T14:02:16;101894.44;;;9.33;83.05
51986;BME280;38002;53.296;6.600;2023-04-15T14:07:16;101914.09;;;9.26;82.99
51986;BME280;38002;53.296;6.600;2023-04-15T14:12:17;101910.41;;;9.16;84.37
51986;BME280;38002;53.296;6.600;2023-04-15T14:17:17;101909.09;;;9.10;84.17
51986;BME280;38002;53.296;6.600;2023-04-15T14:22:18;101915.34;;;9.10;83.22
51986;BME280;38002;53.296;6.600;2023-04-15T14:27:18;101918.94;;;9.11;83.51
51986;BME280;38002;53.296;6.600;2023-04-15T14:32:19;101930.06;;;9.08;83.13
51986;BME280;38002;53.296;6.600;2023-04-15T14:37:20;101933.13;;;9.03;83.86
51986;BME280;38002;53.296;6.600;2023-04-15T14:42:20;101936.34;;;8.97;84.51
51986;BME280;38002;53.296;6.600;2023-04-15T14:47:21;101943.50;;;8.98;83.26
51986;BME280;38002;53.296;6.600;2023-04-15T14:52:21;101958.69;;;8.90;84.35
51986;BME280;38002;53.296;6.600;2023-04-15T14:57:22;101966.56;;;8.82;83.57
51986;BME280;38002;53.296;6.600;2023-04-15T15:02:22;101968.56;;;8.80;84.24
51986;BME280;38002;53.296;6.600;2023-04-15T15:07:23;101976.81;;;8.78;84.49
51986;BME280;38002;53.296;6.600;2023-04-15T15:12:23;101981.63;;;8.75;84.65
51986;BME280;38002;53.296;6.600;2023-04-15T15:17:24;101982.72;;;8.72;84.61
51986;BME280;38002;53.296;6.600;2023-04-15T15:22:24;101985.69;;;8.69;84.04
51986;BME280;38002;53.296;6.600;2023-04-15T15:27:25;101998.63;;;8.65;84.48
51986;BME280;38002;53.296;6.600;2023-04-15T15:32:25;101996.38;;;8.59;84.78
51986;BME280;38002;53.296;6.600;2023-04-15T15:37:26;102001.94;;;8.58;84.83
51986;BME280;38002;53.296;6.600;2023-04-15T15:42:30;102000.47;;;8.54;83.96
51986;BME280;38002;53.296;6.600;2023-04-15T15:47:31;102006.38;;;8.48;84.88
51986;BME280;38002;53.296;6.600;2023-04-15T15:52:31;102011.03;;;8.46;84.91
51986;BME280;38002;53.296;6.600;2023-04-15T15:57:32;102019.56;;;8.41;85.12
51986;BME280;38002;53.296;6.600;2023-04-15T16:02:32;102022.38;;;8.40;85.35
51986;BME280;38002;53.296;6.600;2023-04-15T16:07:33;102024.31;;;8.38;85.34
51986;BME280;38002;53.296;6.600;2023-04-15T16:12:33;102029.88;;;8.36;85.44
51986;BME280;38002;53.296;6.600;2023-04-15T16:17:34;102035.31;;;8.36;84.94
51986;BME280;38002;53.296;6.600;2023-04-15T16:22:34;102041.81;;;8.34;85.55
51986;BME280;38002;53.296;6.600;2023-04-15T16:27:35;102041.81;;;8.34;85.95
51986;BME280;38002;53.296;6.600;2023-04-15T16:32:36;102036.63;;;8.31;85.55
51986;BME280;38002;53.296;6.600;2023-04-15T16:37:36;102044.88;;;8.29;85.03
51986;BME280;38002;53.296;6.600;2023-04-15T16:42:36;102040.53;;;8.27;85.64
51986;BME280;38002;53.296;6.600;2023-04-15T16:47:37;102046.81;;;8.27;85.48
51986;BME280;38002;53.296;6.600;2023-04-15T16:52:38;102049.63;;;8.26;85.90
51986;BME280;38002;53.296;6.600;2023-04-15T16:57:38;102064.16;;;8.25;85.33
51986;BME280;38002;53.296;6.600;2023-04-15T17:02:38;102058.97;;;8.21;85.22
51986;BME280;38002;53.296;6.600;2023-04-15T17:07:39;102062.66;;;8.20;85.45
51986;BME280;38002;53.296;6.600;2023-04-15T17:12:39;102064.63;;;8.18;86.11
51986;BME280;38002;53.296;6.600;2023-04-15T17:17:40;102068.44;;;8.16;86.17
51986;BME280;38002;53.296;6.600;2023-04-15T17:22:40;102081.09;;;8.15;85.37
51986;BME280;38002;53.296;6.600;2023-04-15T17:27:41;102098.47;;;8.13;85.70
51986;BME280;38002;53.296;6.600;2023-04-15T17:32:41;102089.63;;;8.11;86.16
51986;BME280;38002;53.296;6.600;2023-04-15T17:37:42;102088.84;;;8.09;86.71
51986;BME280;38002;53.296;6.600;2023-04-15T17:42:42;102098.72;;;8.10;86.87
51986;BME280;38002;53.296;6.600;2023-04-15T17:47:43;102094.38;;;8.07;86.83
51986;BME280;38002;53.296;6.600;2023-04-15T17:52:43;102112.25;;;8.10;85.57
51986;BME280;38002;53.296;6.600;2023-04-15T17:57:45;102106.84;;;8.10;86.15
51986;BME280;38002;53.296;6.600;2023-04-15T18:02:45;102105.00;;;8.10;86.16
51986;BME280;38002;53.296;6.600;2023-04-15T18:07:50;102114.00;;;8.11;86.35
51986;BME280;38002;53.296;6.600;2023-04-15T18:12:50;102124.84;;;8.11;86.91
51986;BME280;38002;53.296;6.600;2023-04-15T18:17:51;102134.66;;;8.12;86.77
51986;BME280;38002;53.296;6.600;2023-04-15T18:22:51;102137.38;;;8.12;86.79
51986;BME280;38002;53.296;6.600;2023-04-15T18:27:53;102139.22;;;8.11;87.33
51986;BME280;38002;53.296;6.600;2023-04-15T18:32:54;102158.06;;;8.13;87.19
51986;BME280;38002;53.296;6.600;2023-04-15T18:37:57;102156.13;;;8.15;87.21
51986;BME280;38002;53.296;6.600;2023-04-15T18:42:58;102172.38;;;8.15;87.42
51986;BME280;38002;53.296;6.600;2023-04-15T18:47:58;102182.34;;;8.14;87.66
51986;BME280;38002;53.296;6.600;2023-04-15T18:52:59;102181.34;;;8.15;87.01
51986;BME280;38002;53.296;6.600;2023-04-15T18:58:00;102193.94;;;8.16;87.42
51986;BME280;38002;53.296;6.600;2023-04-15T19:03:00;102205.53;;;8.18;87.68
51986;BME280;38002;53.296;6.600;2023-04-15T19:08:01;102201.72;;;8.21;88.62
51986;BME280;38002;53.296;6.600;2023-04-15T19:13:02;102213.53;;;8.20;88.03
51986;BME280;38002;53.296;6.600;2023-04-15T19:18:02;102205.28;;;8.21;88.19
51986;BME280;38002;53.296;6.600;2023-04-15T19:23:04;102217.88;;;8.23;88.43
51986;BME280;38002;53.296;6.600;2023-04-15T19:28:05;102214.19;;;8.24;88.61
51986;BME280;38002;53.296;6.600;2023-04-15T19:33:06;102222.19;;;8.25;88.26
51986;BME280;38002;53.296;6.600;2023-04-15T19:38:06;102227.59;;;8.25;88.86
51986;BME280;38002;53.296;6.600;2023-04-15T19:43:07;102225.75;;;8.26;88.99
51986;BME280;38002;53.296;6.600;2023-04-15T19:48:07;102238.25;;;8.28;88.71
51986;BME280;38002;53.296;6.600;2023-04-15T19:53:08;102230.00;;;8.30;88.56
51986;BME280;38002;53.296;6.600;2023-04-15T19:58:09;102232.47;;;8.33;88.70
51986;BME280;38002;53.296;6.600;2023-04-15T20:03:09;102226.09;;;8.34;89.46
51986;BME280;38002;53.296;6.600;2023-04-15T20:08:10;102233.00;;;8.38;89.71
51986;BME280;38002;53.296;6.600;2023-04-15T20:13:11;102234.75;;;8.39;89.24
51986;BME280;38002;53.296;6.600;2023-04-15T20:18:12;102230.19;;;8.39;89.02
51986;BME280;38002;53.296;6.600;2023-04-15T20:23:12;102228.34;;;8.40;89.57
51986;BME280;38002;53.296;6.600;2023-04-15T20:28:13;102222.69;;;8.43;89.19
51986;BME280;38002;53.296;6.600;2023-04-15T20:33:15;102228.13;;;8.43;90.48
51986;BME280;38002;53.296;6.600;2023-04-15T20:38:15;102231.59;;;8.45;90.12
51986;BME280;38002;53.296;6.600;2023-04-15T20:43:16;102219.75;;;8.46;89.88
51986;BME280;38002;53.296;6.600;2023-04-15T20:48:17;102220.50;;;8.48;89.95
51986;BME280;38002;53.296;6.600;2023-04-15T20:53:18;102225.06;;;8.47;89.51
51986;BME280;38002;53.296;6.600;2023-04-15T20:58:18;102230.38;;;8.49;89.88
51986;BME280;38002;53.296;6.600;2023-04-15T21:03:19;102232.13;;;8.50;90.41
51986;BME280;38002;53.296;6.600;2023-04-15T21:08:19;102233.81;;;8.51;90.36
51986;BME280;38002;53.296;6.600;2023-04-15T21:13:28;102236.44;;;8.52;89.64
51986;BME280;38002;53.296;6.600;2023-04-15T21:18:28;102249.00;;;8.53;89.75
51986;BME280;38002;53.296;6.600;2023-04-15T21:23:29;102255.94;;;8.57;89.90
51986;BME280;38002;53.296;6.600;2023-04-15T21:28:29;102249.41;;;8.60;89.65
51986;BME280;38002;53.296;6.600;2023-04-15T21:33:30;102251.13;;;8.61;89.63
51986;BME280;38002;53.296;6.600;2023-04-15T21:38:31;102268.28;;;8.61;89.90
51986;BME280;38002;53.296;6.600;2023-04-15T21:43:32;102270.13;;;8.61;90.07
51986;BME280;38002;53.296;6.600;2023-04-15T21:48:32;102271.97;;;8.60;90.70
51986;BME280;38002;53.296;6.600;2023-04-15T21:53:33;102282.91;;;8.59;89.90
51986;BME280;38002;53.296;6.600;2023-04-15T21:58:34;102293.75;;;8.59;89.83
51986;BME280;38002;53.296;6.600;2023-04-15T22:03:34;102305.38;;;8.61;90.18
51986;BME280;38002;53.296;6.600;2023-04-15T22:08:35;102301.69;;;8.62;90.04
51986;BME280;38002;53.296;6.600;2023-04-15T22:13:35;102304.41;;;8.62;89.51
51986;BME280;38002;53.296;6.600;2023-04-15T22:18:36;102319.66;;;8.63;89.94
51986;BME280;38002;53.296;6.600;2023-04-15T22:23:36;102319.66;;;8.63;89.86
51986;BME280;38002;53.296;6.600;2023-04-15T22:28:37;102319.66;;;8.63;89.58
51986;BME280;38002;53.296;6.600;2023-04-15T22:33:37;102323.25;;;8.63;90.77
51986;BME280;38002;53.296;6.600;2023-04-15T22:38:38;102323.25;;;8.63;90.25
51986;BME280;38002;53.296;6.600;2023-04-15T22:43:38;102319.78;;;8.61;90.49
51986;BME280;38002;53.296;6.600;2023-04-15T22:48:38;102326.28;;;8.59;90.43
51986;BME280;38002;53.296;6.600;2023-04-15T22:53:39;102324.69;;;8.56;90.33
51986;BME280;38002;53.296;6.600;2023-04-15T22:58:39;102329.22;;;8.56;90.80
51986;BME280;38002;53.296;6.600;2023-04-15T23:03:40;102345.09;;;8.49;90.37
51986;BME280;38002;53.296;6.600;2023-04-15T23:08:40;102340.00;;;8.45;90.43
51986;BME280;38002;53.296;6.600;2023-04-15T23:13:41;102348.47;;;8.40;89.75
51986;BME280;38002;53.296;6.600;2023-04-15T23:18:41;102354.44;;;8.33;90.69
51986;BME280;38002;53.296;6.600;2023-04-15T23:23:42;102364.72;;;8.28;90.66
51986;BME280;38002;53.296;6.600;2023-04-15T23:28:42;102365.38;;;8.18;90.06
51986;BME280;38002;53.296;6.600;2023-04-15T23:33:42;102364.84;;;8.13;90.36
51986;BME280;38002;53.296;6.600;2023-04-15T23:38:43;102358.78;;;8.10;90.01
51986;BME280;38002;53.296;6.600;2023-04-15T23:43:43;102360.63;;;8.09;90.20
51986;BME280;38002;53.296;6.600;2023-04-15T23:48:44;102361.69;;;8.07;90.36
51986;BME280;38002;53.296;6.600;2023-04-15T23:53:47;102367.25;;;8.05;90.16
51986;BME280;38002;53.296;6.600;2023-04-15T23:58:48;102360.72;;;8.08;90.73
